createdAt,value
2019-02-19T00:00:35.778Z,962.96
2019-02-19T00:01:35.772Z,962.97
2019-02-19T00:02:35.765Z,962.90
2019-02-19T00:03:35.764Z,962.90
2019-02-19T00:04:35.759Z,962.93
2019-02-19T00:05:35.753Z,962.81
2019-02-19T00:06:35.750Z,962.88
2019-02-19T00:07:35.745Z,962.90
2019-02-19T00:08:35.744Z,962.85
2019-02-19T00:09:35.736Z,962.90
2019-02-19T00:10:35.735Z,962.84
2019-02-19T00:11:35.733Z,962.89
2019-02-19T00:12:35.732Z,962.86
2019-02-19T00:13:35.722Z,962.86
2019-02-19T00:14:35.718Z,962.87
2019-02-19T00:15:35.715Z,962.91
2019-02-19T00:16:35.728Z,962.87
2019-02-19T00:17:35.715Z,962.88
2019-02-19T00:18:35.701Z,962.87
2019-02-19T00:19:35.703Z,962.87
2019-02-19T00:20:35.702Z,962.90
2019-02-19T00:21:35.690Z,962.89
2019-02-19T00:22:35.687Z,962.89
2019-02-19T00:23:35.686Z,962.87
2019-02-19T00:24:35.679Z,962.87
2019-02-19T00:25:35.674Z,962.89
2019-02-19T00:26:35.672Z,962.86
2019-02-19T00:27:35.671Z,962.90
2019-02-19T00:28:35.664Z,962.82
2019-02-19T00:29:35.658Z,962.85
2019-02-19T00:30:35.655Z,962.84
2019-02-19T00:31:35.671Z,962.87
2019-02-19T00:32:35.650Z,962.78
2019-02-19T00:33:35.647Z,962.82
2019-02-19T00:34:35.641Z,962.82
2019-02-19T00:35:35.637Z,962.83
2019-02-19T00:36:35.633Z,962.83
2019-02-19T00:37:35.626Z,962.81
2019-02-19T00:38:35.625Z,962.79
2019-02-19T00:39:35.622Z,962.82
2019-02-19T00:40:35.629Z,962.79
2019-02-19T00:41:35.611Z,962.78
2019-02-19T00:42:35.608Z,962.79
2019-02-19T00:43:35.606Z,962.84
2019-02-19T00:44:35.602Z,962.79
2019-02-19T00:45:35.604Z,962.83
2019-02-19T00:46:35.592Z,962.82
2019-02-19T00:47:35.601Z,962.80
2019-02-19T00:48:35.585Z,962.82
2019-02-19T00:49:35.580Z,962.84
2019-02-19T00:50:35.578Z,962.82
2019-02-19T00:51:35.576Z,962.82
2019-02-19T00:52:35.569Z,962.80
2019-02-19T00:53:35.566Z,962.81
2019-02-19T00:54:35.568Z,962.76
2019-02-19T00:55:35.559Z,962.76
2019-02-19T00:56:35.556Z,962.80
2019-02-19T00:57:35.551Z,962.80
2019-02-19T00:58:35.545Z,962.82
2019-02-19T00:59:35.545Z,962.76
2019-02-19T01:00:35.545Z,962.81
2019-02-19T01:01:35.534Z,962.78
2019-02-19T01:02:35.533Z,962.77
2019-02-19T01:03:35.529Z,962.70
2019-02-19T01:04:35.551Z,962.70
2019-02-19T01:05:35.527Z,962.71
2019-02-19T01:06:35.515Z,962.73
2019-02-19T01:07:35.514Z,962.70
2019-02-19T01:08:35.506Z,962.69
2019-02-19T01:09:35.504Z,962.68
2019-02-19T01:10:35.501Z,962.62
2019-02-19T01:11:35.499Z,962.62
2019-02-19T01:12:35.494Z,962.62
2019-02-19T01:13:35.492Z,962.59
2019-02-19T01:14:35.483Z,962.57
2019-02-19T01:15:35.484Z,962.54
2019-02-19T01:16:35.479Z,962.57
2019-02-19T01:17:35.472Z,962.57
2019-02-19T01:18:35.481Z,962.54
2019-02-19T01:19:35.463Z,962.62
2019-02-19T01:20:35.457Z,962.53
2019-02-19T01:21:35.471Z,962.53
2019-02-19T01:22:35.456Z,962.59
2019-02-19T01:23:35.448Z,962.57
2019-02-19T01:24:35.443Z,962.49
2019-02-19T01:25:35.439Z,962.46
2019-02-19T01:26:35.436Z,962.50
2019-02-19T01:27:35.429Z,962.49
2019-02-19T01:28:35.428Z,962.41
2019-02-19T01:29:35.423Z,962.42
2019-02-19T01:30:35.421Z,962.39
2019-02-19T01:31:35.413Z,962.39
2019-02-19T01:32:35.410Z,962.36
2019-02-19T01:33:35.426Z,962.29
2019-02-19T01:34:35.409Z,962.24
2019-02-19T01:35:35.399Z,962.28
2019-02-19T01:36:35.394Z,962.26
2019-02-19T01:37:35.392Z,962.21
2019-02-19T01:38:35.389Z,962.20
2019-02-19T01:39:35.392Z,962.21
2019-02-19T01:40:35.378Z,962.15
2019-02-19T01:41:35.374Z,962.17
2019-02-19T01:42:35.388Z,962.17
2019-02-19T01:43:35.365Z,962.10
2019-02-19T01:44:35.363Z,962.13
2019-02-19T01:45:35.365Z,962.11
2019-02-19T01:46:35.354Z,962.16
2019-02-19T01:47:35.348Z,962.14
2019-02-19T01:48:35.344Z,962.12
2019-02-19T01:49:35.341Z,962.07
2019-02-19T01:50:35.337Z,962.00
2019-02-19T01:51:35.332Z,962.09
2019-02-19T01:52:35.329Z,962.11
2019-02-19T01:53:35.322Z,962.08
2019-02-19T01:54:35.325Z,962.04
2019-02-19T01:55:35.331Z,962.02
2019-02-19T01:56:35.311Z,961.99
2019-02-19T01:57:35.306Z,962.10
2019-02-19T01:58:35.303Z,962.10
2019-02-19T01:59:35.300Z,962.07
2019-02-19T02:00:35.314Z,962.13
2019-02-19T02:01:35.289Z,962.03
2019-02-19T02:02:35.291Z,962.10
2019-02-19T02:03:35.283Z,962.09
2019-02-19T02:04:35.308Z,962.06
2019-02-19T02:05:35.288Z,962.09
2019-02-19T02:06:35.267Z,962.03
2019-02-19T02:07:35.265Z,962.03
2019-02-19T02:08:35.263Z,961.99
2019-02-19T02:09:35.259Z,961.98
2019-02-19T02:10:35.253Z,961.98
2019-02-19T02:11:35.246Z,961.96
2019-02-19T02:12:35.241Z,961.96
2019-02-19T02:13:35.242Z,961.95
2019-02-19T02:14:35.233Z,961.94
2019-02-19T02:15:42.502Z,961.94
2019-02-19T02:16:35.227Z,961.95
2019-02-19T02:17:35.232Z,961.89
2019-02-19T02:18:35.219Z,961.88
2019-02-19T02:19:35.217Z,961.90
2019-02-19T02:20:35.231Z,961.87
2019-02-19T02:21:35.202Z,961.95
2019-02-19T02:22:35.203Z,961.86
2019-02-19T02:23:35.195Z,961.88
2019-02-19T02:24:35.191Z,961.90
2019-02-19T02:25:35.186Z,961.91
2019-02-19T02:26:35.196Z,961.92
2019-02-19T02:27:35.178Z,961.86
2019-02-19T02:28:35.175Z,962.00
2019-02-19T02:29:35.170Z,961.91
2019-02-19T02:30:35.170Z,961.90
2019-02-19T02:31:35.161Z,961.98
2019-02-19T02:32:35.164Z,961.95
2019-02-19T02:33:35.153Z,962.02
2019-02-19T02:34:35.146Z,962.03
2019-02-19T02:35:35.154Z,962.01
2019-02-19T02:36:35.151Z,962.02
2019-02-19T02:37:35.151Z,962.04
2019-02-19T02:38:35.131Z,962.04
2019-02-19T02:39:35.126Z,962.01
2019-02-19T02:40:35.124Z,962.05
2019-02-19T02:41:35.123Z,962.01
2019-02-19T02:42:35.113Z,962.01
2019-02-19T02:43:35.108Z,961.98
2019-02-19T02:44:35.101Z,962.00
2019-02-19T02:45:35.103Z,961.93
2019-02-19T02:46:35.093Z,961.95
2019-02-19T02:47:35.091Z,961.93
2019-02-19T02:48:35.086Z,961.95
2019-02-19T02:49:35.083Z,961.94
2019-02-19T02:50:35.076Z,961.96
2019-02-19T02:51:35.078Z,961.97
2019-02-19T02:52:35.070Z,961.97
2019-02-19T02:53:35.065Z,961.97
2019-02-19T02:54:35.060Z,961.95
2019-02-19T02:55:35.053Z,962.01
2019-02-19T02:56:35.050Z,962.00
2019-02-19T02:57:35.045Z,961.97
2019-02-19T02:58:35.039Z,961.96
2019-02-19T02:59:35.038Z,962.01
2019-02-19T03:00:35.038Z,962.03
2019-02-19T03:01:35.030Z,962.04
2019-02-19T03:02:35.023Z,962.00
2019-02-19T03:03:35.018Z,962.02
2019-02-19T03:04:35.013Z,962.08
2019-02-19T03:05:35.010Z,962.05
2019-02-19T03:06:35.014Z,962.05
2019-02-19T03:07:35.003Z,962.05
2019-02-19T03:08:35.001Z,962.10
2019-02-19T03:09:34.988Z,962.05
2019-02-19T03:10:34.987Z,962.03
2019-02-19T03:11:34.982Z,962.02
2019-02-19T03:12:34.994Z,962.06
2019-02-19T03:13:34.973Z,962.04
2019-02-19T03:14:34.971Z,962.05
2019-02-19T03:15:34.970Z,962.00
2019-02-19T03:16:34.960Z,962.05
2019-02-19T03:17:34.958Z,962.00
2019-02-19T03:18:34.959Z,962.03
2019-02-19T03:19:34.946Z,962.00
2019-02-19T03:20:34.948Z,961.99
2019-02-19T03:21:34.937Z,961.97
2019-02-19T03:22:34.932Z,961.98
2019-02-19T03:23:34.930Z,961.96
2019-02-19T03:24:34.926Z,961.92
2019-02-19T03:25:34.917Z,961.98
2019-02-19T03:26:34.914Z,962.02
2019-02-19T03:27:34.910Z,961.95
2019-02-19T03:28:34.904Z,961.95
2019-02-19T03:29:34.903Z,961.92
2019-02-19T03:30:34.911Z,961.97
2019-02-19T03:31:34.892Z,962.03
2019-02-19T03:32:34.967Z,961.96
2019-02-19T03:33:34.880Z,962.03
2019-02-19T03:34:34.878Z,962.05
2019-02-19T03:35:34.879Z,962.03
2019-02-19T03:36:34.876Z,962.07
2019-02-19T03:37:34.866Z,962.09
2019-02-19T03:38:34.860Z,962.11
2019-02-19T03:39:34.851Z,962.11
2019-02-19T03:40:34.848Z,962.12
2019-02-19T03:41:34.843Z,962.08
2019-02-19T03:42:34.840Z,962.13
2019-02-19T03:43:34.832Z,962.04
2019-02-19T03:44:34.825Z,962.07
2019-02-19T03:45:34.832Z,962.09
2019-02-19T03:46:34.829Z,962.04
2019-02-19T03:47:34.834Z,962.13
2019-02-19T03:48:34.814Z,962.16
2019-02-19T03:49:34.804Z,962.14
2019-02-19T03:50:34.800Z,962.15
2019-02-19T03:51:34.794Z,962.19
2019-02-19T03:52:34.792Z,962.20
2019-02-19T03:53:34.786Z,962.18
2019-02-19T03:54:34.780Z,962.17
2019-02-19T03:55:34.776Z,962.12
2019-02-19T03:56:34.783Z,962.11
2019-02-19T03:57:34.774Z,962.14
2019-02-19T03:58:34.760Z,962.16
2019-02-19T03:59:34.757Z,962.17
2019-02-19T04:00:34.753Z,962.14
2019-02-19T04:01:34.750Z,962.19
2019-02-19T04:02:34.753Z,962.21
2019-02-19T04:03:34.735Z,962.19
2019-02-19T04:04:34.736Z,962.23
2019-02-19T04:05:34.726Z,962.20
2019-02-19T04:06:34.732Z,962.23
2019-02-19T04:07:34.727Z,962.19
2019-02-19T04:08:34.720Z,962.19
2019-02-19T04:09:34.712Z,962.23
2019-02-19T04:10:34.704Z,962.26
2019-02-19T04:11:34.704Z,962.22
2019-02-19T04:12:34.696Z,962.21
2019-02-19T04:13:34.708Z,962.17
2019-02-19T04:14:34.687Z,962.21
2019-02-19T04:15:34.685Z,962.23
2019-02-19T04:16:34.679Z,962.24
2019-02-19T04:17:34.673Z,962.20
2019-02-19T04:18:34.666Z,962.25
2019-02-19T04:19:34.662Z,962.25
2019-02-19T04:20:34.657Z,962.27
2019-02-19T04:21:34.656Z,962.28
2019-02-19T04:22:34.644Z,962.25
2019-02-19T04:23:34.639Z,962.30
2019-02-19T04:24:34.648Z,962.33
2019-02-19T04:25:34.632Z,962.30
2019-02-19T04:26:34.630Z,962.36
2019-02-19T04:27:34.621Z,962.33
2019-02-19T04:28:34.651Z,962.32
2019-02-19T04:29:34.623Z,962.36
2019-02-19T04:30:34.691Z,962.34
2019-02-19T04:31:34.626Z,962.34
2019-02-19T04:32:34.600Z,962.33
2019-02-19T04:33:34.595Z,962.34
2019-02-19T04:34:34.597Z,962.33
2019-02-19T04:35:34.583Z,962.29
2019-02-19T04:36:34.584Z,962.28
2019-02-19T04:37:34.577Z,962.29
2019-02-19T04:38:34.570Z,962.30
2019-02-19T04:39:34.563Z,962.33
2019-02-19T04:40:34.559Z,962.36
2019-02-19T04:41:34.561Z,962.34
2019-02-19T04:42:34.563Z,962.37
2019-02-19T04:43:34.545Z,962.40
2019-02-19T04:44:34.541Z,962.40
2019-02-19T04:45:34.563Z,962.39
2019-02-19T04:46:34.532Z,962.40
2019-02-19T04:47:34.532Z,962.42
2019-02-19T04:48:34.538Z,962.41
2019-02-19T04:49:34.516Z,962.38
2019-02-19T04:50:34.507Z,962.39
2019-02-19T04:51:34.506Z,962.36
2019-02-19T04:52:34.498Z,962.40
2019-02-19T04:53:34.497Z,962.38
2019-02-19T04:54:34.491Z,962.40
2019-02-19T04:55:34.487Z,962.40
2019-02-19T04:56:34.485Z,962.39
2019-02-19T04:57:34.475Z,962.39
2019-02-19T04:58:34.470Z,962.34
2019-02-19T04:59:34.483Z,962.36
2019-02-19T05:00:34.460Z,962.34
2019-02-19T05:01:34.456Z,962.35
2019-02-19T05:04:40.941Z,962.34
2019-02-19T05:05:40.851Z,962.38
2019-02-19T05:07:33.845Z,962.35
2019-02-19T05:08:33.641Z,962.39
2019-02-19T05:10:27.105Z,962.42
2019-02-19T05:11:27.082Z,962.37
2019-02-19T05:13:36.350Z,962.34
2019-02-19T05:14:36.342Z,962.39
2019-02-19T05:16:29.845Z,962.42
2019-02-19T05:17:29.843Z,962.35
2019-02-19T05:19:24.295Z,962.36
2019-02-19T05:20:23.215Z,962.37
2019-02-19T05:22:16.101Z,962.32
2019-02-19T05:23:16.110Z,962.35
2019-02-19T05:25:09.194Z,962.28
2019-02-19T05:26:09.066Z,962.30
2019-02-19T05:28:02.971Z,962.30
2019-02-19T05:29:10.080Z,962.29
2019-02-19T05:30:55.860Z,962.23
2019-02-19T05:31:55.715Z,962.29
2019-02-19T05:33:48.744Z,962.27
2019-02-19T05:34:48.643Z,962.26
2019-02-19T05:36:41.538Z,962.30
2019-02-19T05:37:41.434Z,962.30
2019-02-19T05:39:35.093Z,962.31
2019-02-19T05:40:34.906Z,962.26
2019-02-19T05:41:50.643Z,962.29
2019-02-19T05:42:50.598Z,962.32
2019-02-19T05:44:43.563Z,962.33
2019-02-19T05:45:43.457Z,962.38
2019-02-19T05:46:49.696Z,962.41
2019-02-19T05:47:43.633Z,962.40
2019-02-19T05:48:43.400Z,962.44
2019-02-19T05:49:43.390Z,962.44
2019-02-19T05:50:43.388Z,962.44
2019-02-19T05:51:43.381Z,962.49
2019-02-19T05:52:43.390Z,962.46
2019-02-19T05:53:44.881Z,962.50
2019-02-19T05:54:43.368Z,962.50
2019-02-19T05:55:43.361Z,962.48
2019-02-19T05:56:43.357Z,962.52
2019-02-19T05:57:43.351Z,962.55
2019-02-19T05:58:43.347Z,962.51
2019-02-19T05:59:43.348Z,962.54
2019-02-19T06:00:43.339Z,962.59
2019-02-19T06:01:43.341Z,962.58
2019-02-19T06:02:43.338Z,962.60
2019-02-19T06:03:43.327Z,962.63
2019-02-19T06:04:43.321Z,962.64
2019-02-19T06:05:43.332Z,962.67
2019-02-19T06:06:43.307Z,962.66
2019-02-19T06:07:43.301Z,962.66
2019-02-19T06:08:43.297Z,962.68
2019-02-19T06:09:43.296Z,962.66
2019-02-19T06:10:44.165Z,962.68
2019-02-19T06:11:43.280Z,962.74
2019-02-19T06:12:43.307Z,962.75
2019-02-19T06:13:43.284Z,962.74
2019-02-19T06:14:43.269Z,962.72
2019-02-19T06:15:43.260Z,962.70
2019-02-19T06:16:43.263Z,962.71
2019-02-19T06:17:43.251Z,962.73
2019-02-19T06:18:43.247Z,962.77
2019-02-19T06:19:43.239Z,962.76
2019-02-19T06:20:43.239Z,962.77
2019-02-19T06:21:43.233Z,962.80
2019-02-19T06:22:43.229Z,962.84
2019-02-19T06:23:43.220Z,962.82
2019-02-19T06:24:43.218Z,962.81
2019-02-19T06:25:43.237Z,962.85
2019-02-19T06:26:43.232Z,962.86
2019-02-19T06:27:43.200Z,962.89
2019-02-19T06:28:43.199Z,962.89
2019-02-19T06:29:43.190Z,962.87
2019-02-19T06:30:43.183Z,962.87
2019-02-19T06:31:43.178Z,962.90
2019-02-19T06:32:43.179Z,962.89
2019-02-19T06:33:43.169Z,962.91
2019-02-19T06:34:43.165Z,962.92
2019-02-19T06:35:43.161Z,962.88
2019-02-19T06:36:43.168Z,962.90
2019-02-19T06:37:43.154Z,962.95
2019-02-19T06:38:43.144Z,962.94
2019-02-19T06:39:43.139Z,962.90
2019-02-19T06:40:43.132Z,962.90
2019-02-19T06:41:43.136Z,962.93
2019-02-19T06:42:43.134Z,962.98
2019-02-19T06:43:43.121Z,962.93
2019-02-19T06:44:43.112Z,962.93
2019-02-19T06:45:43.110Z,962.90
2019-02-19T06:46:43.101Z,962.91
2019-02-19T06:47:43.097Z,962.99
2019-02-19T06:48:43.093Z,963.01
2019-02-19T06:49:43.123Z,963.06
2019-02-19T06:50:43.082Z,963.09
2019-02-19T06:51:43.078Z,963.10
2019-02-19T06:52:43.088Z,963.15
2019-02-19T06:53:43.099Z,963.17
2019-02-19T06:54:43.100Z,963.15
2019-02-19T06:55:44.869Z,963.22
2019-02-19T06:56:43.050Z,963.17
2019-02-19T06:57:43.051Z,963.18
2019-02-19T06:58:43.042Z,963.19
2019-02-19T06:59:43.034Z,963.21
2019-02-19T07:00:43.037Z,963.18
2019-02-19T07:01:43.039Z,963.16
2019-02-19T07:02:43.023Z,963.24
2019-02-19T07:03:43.016Z,963.18
2019-02-19T07:04:43.012Z,963.24
2019-02-19T07:05:43.003Z,963.28
2019-02-19T07:06:43.000Z,963.27
2019-02-19T07:07:42.994Z,963.26
2019-02-19T07:08:42.998Z,963.32
2019-02-19T07:09:42.994Z,963.32
2019-02-19T07:10:42.981Z,963.34
2019-02-19T07:11:42.976Z,963.31
2019-02-19T07:12:42.979Z,963.32
2019-02-19T07:13:42.971Z,963.34
2019-02-19T07:14:42.961Z,963.30
2019-02-19T07:15:42.956Z,963.31
2019-02-19T07:16:42.950Z,963.28
2019-02-19T07:17:42.973Z,963.27
2019-02-19T07:18:42.941Z,963.29
2019-02-19T07:19:42.935Z,963.29
2019-02-19T07:20:42.931Z,963.36
2019-02-19T07:21:42.926Z,963.37
2019-02-19T07:22:42.926Z,963.38
2019-02-19T07:23:42.942Z,963.38
2019-02-19T07:24:42.921Z,963.34
2019-02-19T07:25:42.912Z,963.40
2019-02-19T07:26:42.901Z,963.44
2019-02-19T07:27:42.894Z,963.43
2019-02-19T07:28:42.892Z,963.45
2019-02-19T07:29:42.885Z,963.41
2019-02-19T07:30:42.881Z,963.43
2019-02-19T07:31:42.881Z,963.40
2019-02-19T07:32:42.885Z,963.37
2019-02-19T07:33:42.905Z,963.34
2019-02-19T07:34:42.877Z,963.33
2019-02-19T07:35:42.865Z,963.32
2019-02-19T07:36:42.868Z,963.28
2019-02-19T07:37:42.864Z,963.26
2019-02-19T07:38:42.884Z,963.28
2019-02-19T07:39:42.836Z,963.29
2019-02-19T07:40:42.837Z,963.26
2019-02-19T07:41:42.829Z,963.28
2019-02-19T07:42:42.823Z,963.27
2019-02-19T07:43:42.820Z,963.33
2019-02-19T07:44:42.813Z,963.30
2019-02-19T07:45:42.813Z,963.36
2019-02-19T07:46:42.802Z,963.33
2019-02-19T07:47:42.804Z,963.38
2019-02-19T07:48:42.795Z,963.39
2019-02-19T07:49:42.792Z,963.39
2019-02-19T07:50:42.787Z,963.43
2019-02-19T07:51:42.812Z,963.48
2019-02-19T07:52:42.775Z,963.50
2019-02-19T07:53:42.793Z,963.55
2019-02-19T07:54:42.769Z,963.52
2019-02-19T07:55:42.778Z,963.50
2019-02-19T07:56:42.758Z,963.50
2019-02-19T07:57:42.981Z,963.52
2019-02-19T07:58:42.748Z,963.48
2019-02-19T07:59:42.744Z,963.52
2019-02-19T08:00:42.743Z,963.57
2019-02-19T08:01:42.744Z,963.59
2019-02-19T08:02:42.740Z,963.65
2019-02-19T08:03:42.726Z,963.65
2019-02-19T08:04:42.717Z,963.63
2019-02-19T08:05:42.725Z,963.64
2019-02-19T08:06:42.710Z,963.62
2019-02-19T08:07:42.704Z,963.65
2019-02-19T08:08:42.716Z,963.62
2019-02-19T08:09:42.697Z,963.65
2019-02-19T08:10:42.722Z,963.60
2019-02-19T08:11:42.692Z,963.56
2019-02-19T08:12:42.684Z,963.56
2019-02-19T08:13:42.678Z,963.53
2019-02-19T08:14:42.673Z,963.57
2019-02-19T08:15:42.667Z,963.58
2019-02-19T08:16:42.664Z,963.63
2019-02-19T08:17:42.673Z,963.61
2019-02-19T08:18:42.661Z,963.59
2019-02-19T08:19:42.655Z,963.61
2019-02-19T08:20:42.652Z,963.61
2019-02-19T08:21:42.639Z,963.58
2019-02-19T08:22:42.634Z,963.56
2019-02-19T08:23:42.644Z,963.59
2019-02-19T08:24:42.626Z,963.60
2019-02-19T08:25:42.633Z,963.61
2019-02-19T08:26:42.617Z,963.56
2019-02-19T08:27:42.612Z,963.54
2019-02-19T08:28:42.609Z,963.59
2019-02-19T08:29:42.601Z,963.58
2019-02-19T08:30:42.600Z,963.54
2019-02-19T08:31:42.590Z,963.62
2019-02-19T08:32:42.589Z,963.63
2019-02-19T08:33:42.585Z,963.67
2019-02-19T08:34:42.580Z,963.74
2019-02-19T08:35:42.577Z,963.71
2019-02-19T08:36:42.571Z,963.70
2019-02-19T08:37:42.582Z,963.76
2019-02-19T08:38:43.116Z,963.77
2019-02-19T08:39:42.555Z,963.81
2019-02-19T08:40:42.550Z,963.81
2019-02-19T08:41:42.546Z,963.77
2019-02-19T08:42:42.581Z,963.77
2019-02-19T08:43:42.536Z,963.74
2019-02-19T08:44:42.532Z,963.76
2019-02-19T08:45:42.529Z,963.80
2019-02-19T08:46:42.542Z,963.76
2019-02-19T08:47:43.114Z,963.80
2019-02-19T08:48:42.526Z,963.78
2019-02-19T08:49:42.508Z,963.80
2019-02-19T08:50:42.504Z,963.78
2019-02-19T08:51:42.500Z,963.84
2019-02-19T08:52:42.510Z,963.86
2019-02-19T08:53:42.488Z,963.81
2019-02-19T08:54:42.484Z,963.85
2019-02-19T08:55:42.481Z,963.87
2019-02-19T08:56:42.476Z,963.89
2019-02-19T08:57:42.481Z,963.94
2019-02-19T08:58:42.467Z,963.95
2019-02-19T08:59:42.460Z,963.94
2019-02-19T09:00:42.461Z,963.95
2019-02-19T09:01:42.450Z,964.02
2019-02-19T09:02:42.454Z,964.04
2019-02-19T09:03:42.443Z,964.11
2019-02-19T09:04:42.439Z,964.11
2019-02-19T09:05:42.434Z,964.15
2019-02-19T09:06:42.433Z,964.17
2019-02-19T09:07:42.430Z,964.18
2019-02-19T09:08:42.437Z,964.17
2019-02-19T09:09:42.999Z,964.14
2019-02-19T09:10:42.413Z,964.10
2019-02-19T09:11:42.408Z,964.06
2019-02-19T09:12:42.418Z,964.05
2019-02-19T09:13:42.398Z,964.10
2019-02-19T09:14:42.395Z,964.08
2019-02-19T09:15:42.391Z,964.06
2019-02-19T09:16:42.385Z,964.06
2019-02-19T09:17:51.361Z,964.09
2019-02-19T09:18:42.373Z,964.02
2019-02-19T09:19:42.396Z,964.07
2019-02-19T09:20:42.366Z,964.15
2019-02-19T09:21:42.362Z,964.10
2019-02-19T09:22:42.359Z,964.17
2019-02-19T09:23:42.484Z,964.19
2019-02-19T09:24:42.350Z,964.22
2019-02-19T09:25:42.345Z,964.23
2019-02-19T09:26:42.360Z,964.24
2019-02-19T09:27:43.361Z,964.31
2019-02-19T09:28:42.332Z,964.33
2019-02-19T09:29:42.328Z,964.27
2019-02-19T09:30:42.323Z,964.25
2019-02-19T09:31:42.318Z,964.27
2019-02-19T09:32:42.313Z,964.32
2019-02-19T09:33:42.312Z,964.39
2019-02-19T09:34:42.324Z,964.40
2019-02-19T09:35:42.298Z,964.49
2019-02-19T09:36:42.297Z,964.46
2019-02-19T09:37:42.304Z,964.46
2019-02-19T09:38:42.285Z,964.46
2019-02-19T09:39:42.283Z,964.43
2019-02-19T09:40:42.286Z,964.44
2019-02-19T09:41:42.291Z,964.42
2019-02-19T09:42:42.269Z,964.45
2019-02-19T09:43:42.271Z,964.42
2019-02-19T09:44:42.262Z,964.45
2019-02-19T09:45:42.257Z,964.47
2019-02-19T09:46:42.286Z,964.43
2019-02-19T09:47:42.249Z,964.43
2019-02-19T09:48:42.241Z,964.41
2019-02-19T09:49:42.249Z,964.45
2019-02-19T09:50:42.235Z,964.43
2019-02-19T09:51:42.229Z,964.36
2019-02-19T09:52:42.223Z,964.40
2019-02-19T09:53:42.219Z,964.41
2019-02-19T09:54:42.214Z,964.42
2019-02-19T09:55:43.825Z,964.44
2019-02-19T09:56:42.221Z,964.44
2019-02-19T09:57:42.202Z,964.42
2019-02-19T09:58:42.201Z,964.38
2019-02-19T09:59:42.195Z,964.38
2019-02-19T10:00:42.185Z,964.45
2019-02-19T10:01:42.187Z,964.42
2019-02-19T10:02:43.807Z,964.50
2019-02-19T10:03:42.176Z,964.49
2019-02-19T10:04:42.169Z,964.50
2019-02-19T10:05:42.171Z,964.53
2019-02-19T10:06:42.157Z,964.57
2019-02-19T10:07:42.155Z,964.51
2019-02-19T10:08:42.151Z,964.54
2019-02-19T10:09:42.146Z,964.54
2019-02-19T10:10:42.148Z,964.58
2019-02-19T10:11:42.141Z,964.59
2019-02-19T10:12:42.136Z,964.60
2019-02-19T10:13:42.124Z,964.58
2019-02-19T10:14:42.127Z,964.58
2019-02-19T10:15:42.119Z,964.53
2019-02-19T10:16:42.286Z,964.61
2019-02-19T10:17:42.112Z,964.56
2019-02-19T10:18:42.103Z,964.61
2019-02-19T10:19:42.112Z,964.63
2019-02-19T10:20:42.090Z,964.58
2019-02-19T10:21:42.122Z,964.60
2019-02-19T10:22:42.145Z,964.59
2019-02-19T10:23:42.079Z,964.55
2019-02-19T10:24:42.078Z,964.58
2019-02-19T10:25:42.069Z,964.59
2019-02-19T10:26:42.086Z,964.57
2019-02-19T10:27:42.067Z,964.58
2019-02-19T10:28:42.061Z,964.59
2019-02-19T10:29:42.049Z,964.65
2019-02-19T10:30:42.044Z,964.63
2019-02-19T10:31:42.037Z,964.68
2019-02-19T10:32:42.039Z,964.64
2019-02-19T10:33:42.047Z,964.66
2019-02-19T10:34:42.025Z,964.69
2019-02-19T10:35:42.019Z,964.59
2019-02-19T10:36:42.035Z,964.62
2019-02-19T10:37:42.011Z,964.61
2019-02-19T10:38:42.006Z,964.63
2019-02-19T10:39:42.001Z,964.61
2019-02-19T10:40:42.003Z,964.68
2019-02-19T10:41:41.991Z,964.69
2019-02-19T10:42:41.994Z,964.69
2019-02-19T10:43:41.983Z,964.69
2019-02-19T10:44:41.981Z,964.67
2019-02-19T10:45:41.975Z,964.66
2019-02-19T10:46:41.966Z,964.64
2019-02-19T10:47:41.960Z,964.65
2019-02-19T10:48:43.709Z,964.66
2019-02-19T10:49:41.951Z,964.64
2019-02-19T10:50:41.948Z,964.62
2019-02-19T10:51:41.942Z,964.65
2019-02-19T10:52:41.937Z,964.66
2019-02-19T10:53:41.934Z,964.63
2019-02-19T10:54:41.931Z,964.65
2019-02-19T10:55:41.924Z,964.64
2019-02-19T10:56:41.917Z,964.55
2019-02-19T10:57:41.926Z,964.54
2019-02-19T10:58:41.908Z,964.55
2019-02-19T10:59:41.902Z,964.54
2019-02-19T11:00:41.974Z,964.54
2019-02-19T11:01:41.913Z,964.53
2019-02-19T11:02:41.893Z,964.58
2019-02-19T11:03:41.887Z,964.58
2019-02-19T11:04:41.880Z,964.49
2019-02-19T11:05:41.875Z,964.54
2019-02-19T11:06:41.889Z,964.54
2019-02-19T11:07:41.859Z,964.52
2019-02-19T11:08:41.861Z,964.49
2019-02-19T11:09:41.858Z,964.54
2019-02-19T11:10:41.848Z,964.51
2019-02-19T11:11:41.911Z,964.52
2019-02-19T11:12:41.839Z,964.48
2019-02-19T11:13:41.840Z,964.46
2019-02-19T11:14:41.829Z,964.48
2019-02-19T11:15:41.820Z,964.48
2019-02-19T11:16:41.821Z,964.47
2019-02-19T11:17:41.812Z,964.51
2019-02-19T11:18:41.809Z,964.54
2019-02-19T11:19:41.829Z,964.55
2019-02-19T11:20:41.799Z,964.56
2019-02-19T11:21:41.791Z,964.55
2019-02-19T11:22:41.790Z,964.58
2019-02-19T11:23:41.813Z,964.53
2019-02-19T11:24:41.812Z,964.53
2019-02-19T11:25:41.775Z,964.48
2019-02-19T11:26:41.766Z,964.49
2019-02-19T11:27:41.766Z,964.47
2019-02-19T11:28:41.767Z,964.47
2019-02-19T11:29:41.792Z,964.47
2019-02-19T11:30:41.785Z,964.51
2019-02-19T11:31:41.776Z,964.48
2019-02-19T11:32:41.810Z,964.44
2019-02-19T11:33:41.734Z,964.45
2019-02-19T11:34:41.728Z,964.44
2019-02-19T11:35:41.723Z,964.46
2019-02-19T11:36:41.717Z,964.42
2019-02-19T11:37:41.737Z,964.38
2019-02-19T11:38:41.718Z,964.42
2019-02-19T11:39:41.724Z,964.39
2019-02-19T11:40:41.698Z,964.40
2019-02-19T11:41:41.697Z,964.39
2019-02-19T11:42:41.689Z,964.41
2019-02-19T11:43:41.715Z,964.42
2019-02-19T11:44:41.689Z,964.35
2019-02-19T11:45:41.679Z,964.33
2019-02-19T11:46:41.668Z,964.29
2019-02-19T11:47:41.662Z,964.29
2019-02-19T11:48:41.657Z,964.29
2019-02-19T11:49:41.651Z,964.26
2019-02-19T11:50:41.667Z,964.28
2019-02-19T11:51:41.663Z,964.28
2019-02-19T11:52:41.639Z,964.29
2019-02-19T11:53:41.663Z,964.28
2019-02-19T11:54:41.631Z,964.23
2019-02-19T11:55:41.629Z,964.26
2019-02-19T11:56:41.616Z,964.27
2019-02-19T11:57:41.622Z,964.33
2019-02-19T11:58:41.629Z,964.30
2019-02-19T11:59:41.601Z,964.30
2019-02-19T12:00:41.596Z,964.28
2019-02-19T12:01:41.594Z,964.32
2019-02-19T12:02:41.596Z,964.30
2019-02-19T12:03:41.595Z,964.25
2019-02-19T12:04:41.594Z,964.23
2019-02-19T12:05:41.611Z,964.23
2019-02-19T12:06:41.576Z,964.26
2019-02-19T12:07:41.573Z,964.24
2019-02-19T12:08:41.564Z,964.23
2019-02-19T12:09:41.558Z,964.19
2019-02-19T12:10:41.549Z,964.22
2019-02-19T12:11:41.545Z,964.19
2019-02-19T12:12:41.539Z,964.14
2019-02-19T12:13:41.556Z,964.14
2019-02-19T12:14:41.534Z,964.18
2019-02-19T12:15:41.527Z,964.11
2019-02-19T12:16:41.530Z,964.07
2019-02-19T12:17:41.562Z,964.08
2019-02-19T12:18:46.274Z,964.04
2019-02-19T12:19:41.532Z,964.02
2019-02-19T12:20:41.537Z,964.01
2019-02-19T12:21:41.535Z,964.00
2019-02-19T12:22:41.494Z,963.99
2019-02-19T12:23:41.504Z,964.01
2019-02-19T12:24:41.487Z,964.07
2019-02-19T12:25:41.518Z,964.08
2019-02-19T12:26:41.477Z,964.06
2019-02-19T12:27:41.483Z,963.98
2019-02-19T12:28:41.472Z,963.96
2019-02-19T12:29:41.471Z,963.98
2019-02-19T12:30:41.461Z,963.99
2019-02-19T12:31:41.471Z,964.02
2019-02-19T12:32:41.452Z,963.92
2019-02-19T12:33:41.457Z,963.95
2019-02-19T12:34:41.443Z,963.96
2019-02-19T12:35:41.443Z,963.86
2019-02-19T12:36:41.443Z,963.86
2019-02-19T12:37:41.446Z,963.84
2019-02-19T12:38:41.428Z,963.89
2019-02-19T12:39:41.426Z,963.84
2019-02-19T12:40:41.424Z,963.86
2019-02-19T12:41:41.420Z,963.92
2019-02-19T12:42:41.416Z,963.87